sensor_id;sensor_type;location;lat;lon;timestamp;temperature;humidity
152;DHT22;68;48.792;9.164;2023-07-02T00:02:13;17.30;64.00
152;DHT22;68;48.792;9.164;2023-07-02T00:04:40;17.30;60.40
152;DHT22;68;48.792;9.164;2023-07-02T00:07:09;17.10;63.10
152;DHT22;68;48.792;9.164;2023-07-02T00:09:36;17.10;61.90
152;DHT22;68;48.792;9.164;2023-07-02T00:12:03;17.10;68.20
152;DHT22;68;48.792;9.164;2023-07-02T00:14:30;17.10;66.90
152;DHT22;68;48.792;9.164;2023-07-02T00:16:57;17.10;66.20
152;DHT22;68;48.792;9.164;2023-07-02T00:19:24;17.10;64.70
152;DHT22;68;48.792;9.164;2023-07-02T00:21:53;17.10;66.10
152;DHT22;68;48.792;9.164;2023-07-02T00:24:22;17.10;67.70
152;DHT22;68;48.792;9.164;2023-07-02T00:26:50;17.00;64.70
152;DHT22;68;48.792;9.164;2023-07-02T00:29:18;17.10;64.80
152;DHT22;68;48.792;9.164;2023-07-02T00:31:45;17.00;67.50
152;DHT22;68;48.792;9.164;2023-07-02T00:34:12;16.80;65.50
152;DHT22;68;48.792;9.164;2023-07-02T00:36:39;16.90;60.50
152;DHT22;68;48.792;9.164;2023-07-02T00:39:07;16.90;61.70
152;DHT22;68;48.792;9.164;2023-07-02T00:41:35;17.00;64.50
152;DHT22;68;48.792;9.164;2023-07-02T00:44:03;17.00;68.60
152;DHT22;68;48.792;9.164;2023-07-02T00:46:30;17.00;64.30
152;DHT22;68;48.792;9.164;2023-07-02T00:48:59;17.10;66.50
152;DHT22;68;48.792;9.164;2023-07-02T00:51:27;17.00;65.30
152;DHT22;68;48.792;9.164;2023-07-02T00:53:55;17.00;65.90
152;DHT22;68;48.792;9.164;2023-07-02T00:56:23;17.00;63.80
152;DHT22;68;48.792;9.164;2023-07-02T00:58:53;16.90;67.90
152;DHT22;68;48.792;9.164;2023-07-02T01:01:25;17.10;68.50
152;DHT22;68;48.792;9.164;2023-07-02T01:03:55;17.20;72.20
152;DHT22;68;48.792;9.164;2023-07-02T01:06:28;17.00;71.40
152;DHT22;68;48.792;9.164;2023-07-02T01:08:57;17.00;72.30
152;DHT22;68;48.792;9.164;2023-07-02T01:11:27;17.00;69.20
152;DHT22;68;48.792;9.164;2023-07-02T01:14:01;16.90;69.90
152;DHT22;68;48.792;9.164;2023-07-02T01:16:30;17.00;68.00
152;DHT22;68;48.792;9.164;2023-07-02T01:18:59;17.10;71.00
152;DHT22;68;48.792;9.164;2023-07-02T01:21:31;17.20;72.90
152;DHT22;68;48.792;9.164;2023-07-02T01:23:58;17.10;72.50
152;DHT22;68;48.792;9.164;2023-07-02T01:26:28;17.10;72.60
152;DHT22;68;48.792;9.164;2023-07-02T01:28:55;17.00;75.60
152;DHT22;68;48.792;9.164;2023-07-02T01:31:22;17.00;75.30
152;DHT22;68;48.792;9.164;2023-07-02T01:33:50;16.80;72.30
152;DHT22;68;48.792;9.164;2023-07-02T01:36:17;16.70;69.90
152;DHT22;68;48.792;9.164;2023-07-02T01:38:45;16.80;70.80
152;DHT22;68;48.792;9.164;2023-07-02T01:41:12;16.80;66.60
152;DHT22;68;48.792;9.164;2023-07-02T01:43:39;16.70;68.40
152;DHT22;68;48.792;9.164;2023-07-02T01:46:06;16.60;67.30
152;DHT22;68;48.792;9.164;2023-07-02T01:48:32;16.50;66.70
152;DHT22;68;48.792;9.164;2023-07-02T01:50:59;16.50;63.80
152;DHT22;68;48.792;9.164;2023-07-02T01:53:26;16.60;62.70
152;DHT22;68;48.792;9.164;2023-07-02T01:55:54;16.60;66.40
152;DHT22;68;48.792;9.164;2023-07-02T01:58:21;16.60;64.30
152;DHT22;68;48.792;9.164;2023-07-02T02:00:47;16.60;62.20
152;DHT22;68;48.792;9.164;2023-07-02T02:03:17;16.60;66.60
152;DHT22;68;48.792;9.164;2023-07-02T02:05:44;16.50;67.20
152;DHT22;68;48.792;9.164;2023-07-02T02:08:11;16.70;65.60
152;DHT22;68;48.792;9.164;2023-07-02T02:10:38;16.80;67.70
152;DHT22;68;48.792;9.164;2023-07-02T02:13:06;16.90;69.90
152;DHT22;68;48.792;9.164;2023-07-02T02:15:33;16.70;72.00
152;DHT22;68;48.792;9.164;2023-07-02T02:17:59;16.70;70.20
152;DHT22;68;48.792;9.164;2023-07-02T02:22:55;16.50;69.50
152;DHT22;68;48.792;9.164;2023-07-02T02:25:22;16.40;64.30
152;DHT22;68;48.792;9.164;2023-07-02T02:27:48;16.30;59.40
152;DHT22;68;48.792;9.164;2023-07-02T02:30:17;16.20;59.10
152;DHT22;68;48.792;9.164;2023-07-02T02:32:43;16.10;57.60
152;DHT22;68;48.792;9.164;2023-07-02T02:35:10;16.10;50.10
152;DHT22;68;48.792;9.164;2023-07-02T02:37:37;16.10;47.00
152;DHT22;68;48.792;9.164;2023-07-02T02:40:06;16.10;44.70
152;DHT22;68;48.792;9.164;2023-07-02T02:45:01;16.50;40.00
152;DHT22;68;48.792;9.164;2023-07-02T02:47:30;16.50;46.90
152;DHT22;68;48.792;9.164;2023-07-02T02:49:56;16.50;48.50
152;DHT22;68;48.792;9.164;2023-07-02T02:52:25;16.50;47.50
152;DHT22;68;48.792;9.164;2023-07-02T02:54:52;16.40;47.40
152;DHT22;68;48.792;9.164;2023-07-02T02:57:19;16.50;50.20
152;DHT22;68;48.792;9.164;2023-07-02T02:59:45;16.50;51.40
152;DHT22;68;48.792;9.164;2023-07-02T03:02:12;16.60;53.20
152;DHT22;68;48.792;9.164;2023-07-02T03:04:40;16.50;61.20
152;DHT22;68;48.792;9.164;2023-07-02T03:07:09;16.40;65.30
152;DHT22;68;48.792;9.164;2023-07-02T03:09:36;16.40;67.70
152;DHT22;68;48.792;9.164;2023-07-02T03:12:03;16.40;66.30
152;DHT22;68;48.792;9.164;2023-07-02T03:14:30;16.40;64.00
152;DHT22;68;48.792;9.164;2023-07-02T03:16:57;16.50;68.70
152;DHT22;68;48.792;9.164;2023-07-02T03:19:26;16.40;78.00
152;DHT22;68;48.792;9.164;2023-07-02T03:21:54;16.40;70.20
152;DHT22;68;48.792;9.164;2023-07-02T03:24:21;16.40;67.60
152;DHT22;68;48.792;9.164;2023-07-02T03:26:47;16.50;65.20
152;DHT22;68;48.792;9.164;2023-07-02T03:29:15;16.50;62.00
152;DHT22;68;48.792;9.164;2023-07-02T03:31:42;16.60;64.00
152;DHT22;68;48.792;9.164;2023-07-02T03:34:09;16.40;60.10
152;DHT22;68;48.792;9.164;2023-07-02T03:36:36;16.40;62.20
152;DHT22;68;48.792;9.164;2023-07-02T03:39:04;16.20;58.00
152;DHT22;68;48.792;9.164;2023-07-02T03:41:31;16.20;53.10
152;DHT22;68;48.792;9.164;2023-07-02T03:43:58;16.10;57.00
152;DHT22;68;48.792;9.164;2023-07-02T03:46:25;16.20;55.50
152;DHT22;68;48.792;9.164;2023-07-02T03:48:52;16.20;56.90
152;DHT22;68;48.792;9.164;2023-07-02T03:53:45;16.40;56.40
152;DHT22;68;48.792;9.164;2023-07-02T03:56:16;16.10;60.40
152;DHT22;68;48.792;9.164;2023-07-02T03:58:42;16.20;60.20
152;DHT22;68;48.792;9.164;2023-07-02T04:01:09;16.30;60.40
152;DHT22;68;48.792;9.164;2023-07-02T04:03:36;16.40;62.10
152;DHT22;68;48.792;9.164;2023-07-02T04:06:03;16.20;62.70
152;DHT22;68;48.792;9.164;2023-07-02T04:08:31;16.10;62.70
152;DHT22;68;48.792;9.164;2023-07-02T04:10:58;16.20;62.50
152;DHT22;68;48.792;9.164;2023-07-02T04:13:26;16.10;66.60
152;DHT22;68;48.792;9.164;2023-07-02T04:15:52;16.10;62.00
152;DHT22;68;48.792;9.164;2023-07-02T04:18:19;16.00;64.50
152;DHT22;68;48.792;9.164;2023-07-02T04:20:46;16.10;64.40
152;DHT22;68;48.792;9.164;2023-07-02T04:23:13;16.10;68.30
152;DHT22;68;48.792;9.164;2023-07-02T04:25:39;16.20;71.00
152;DHT22;68;48.792;9.164;2023-07-02T04:30:35;16.20;72.90
152;DHT22;68;48.792;9.164;2023-07-02T04:33:02;16.20;73.40
152;DHT22;68;48.792;9.164;2023-07-02T04:35:28;16.20;73.90
152;DHT22;68;48.792;9.164;2023-07-02T04:37:55;16.10;75.80
152;DHT22;68;48.792;9.164;2023-07-02T04:40:23;16.00;69.70
152;DHT22;68;48.792;9.164;2023-07-02T04:42:49;16.10;67.30
152;DHT22;68;48.792;9.164;2023-07-02T04:45:23;16.30;71.30
152;DHT22;68;48.792;9.164;2023-07-02T04:47:52;16.30;78.50
152;DHT22;68;48.792;9.164;2023-07-02T04:50:19;16.30;74.20
152;DHT22;68;48.792;9.164;2023-07-02T04:52:46;16.10;71.70
152;DHT22;68;48.792;9.164;2023-07-02T04:55:13;16.10;69.60
152;DHT22;68;48.792;9.164;2023-07-02T04:57:39;16.20;68.40
152;DHT22;68;48.792;9.164;2023-07-02T05:00:07;16.30;66.70
152;DHT22;68;48.792;9.164;2023-07-02T05:02:34;16.10;69.70
152;DHT22;68;48.792;9.164;2023-07-02T05:05:02;16.10;66.30
152;DHT22;68;48.792;9.164;2023-07-02T05:07:29;16.10;70.90
152;DHT22;68;48.792;9.164;2023-07-02T05:09:56;16.20;68.60
152;DHT22;68;48.792;9.164;2023-07-02T05:12:23;16.20;67.20
152;DHT22;68;48.792;9.164;2023-07-02T05:14:50;16.30;68.80
152;DHT22;68;48.792;9.164;2023-07-02T05:17:16;16.50;70.50
152;DHT22;68;48.792;9.164;2023-07-02T05:19:43;16.50;73.20
152;DHT22;68;48.792;9.164;2023-07-02T05:22:11;16.60;73.20
152;DHT22;68;48.792;9.164;2023-07-02T05:24:38;16.70;79.00
152;DHT22;68;48.792;9.164;2023-07-02T05:27:06;16.90;81.70
152;DHT22;68;48.792;9.164;2023-07-02T05:29:33;16.90;84.10
152;DHT22;68;48.792;9.164;2023-07-02T05:31:59;16.60;86.40
152;DHT22;68;48.792;9.164;2023-07-02T05:34:26;16.50;79.80
152;DHT22;68;48.792;9.164;2023-07-02T05:36:53;16.70;78.60
152;DHT22;68;48.792;9.164;2023-07-02T05:39:21;16.70;76.70
152;DHT22;68;48.792;9.164;2023-07-02T05:41:48;16.60;75.30
152;DHT22;68;48.792;9.164;2023-07-02T05:44:15;16.60;72.00
152;DHT22;68;48.792;9.164;2023-07-02T05:46:41;16.60;75.50
152;DHT22;68;48.792;9.164;2023-07-02T05:49:08;16.60;70.30
152;DHT22;68;48.792;9.164;2023-07-02T05:51:35;16.50;68.80
152;DHT22;68;48.792;9.164;2023-07-02T05:54:01;16.60;75.30
152;DHT22;68;48.792;9.164;2023-07-02T05:56:30;16.70;78.50
152;DHT22;68;48.792;9.164;2023-07-02T05:58:56;16.80;84.20
152;DHT22;68;48.792;9.164;2023-07-02T06:01:23;16.80;88.70
152;DHT22;68;48.792;9.164;2023-07-02T06:03:50;17.00;84.10
152;DHT22;68;48.792;9.164;2023-07-02T06:06:17;17.00;85.80
152;DHT22;68;48.792;9.164;2023-07-02T06:08:43;17.00;82.30
152;DHT22;68;48.792;9.164;2023-07-02T06:11:12;17.00;81.00
152;DHT22;68;48.792;9.164;2023-07-02T06:13:40;17.00;82.70
152;DHT22;68;48.792;9.164;2023-07-02T06:16:07;17.00;88.90
152;DHT22;68;48.792;9.164;2023-07-02T06:21:01;17.10;86.60
152;DHT22;68;48.792;9.164;2023-07-02T06:23:29;17.00;89.70
152;DHT22;68;48.792;9.164;2023-07-02T06:25:56;17.00;90.10
152;DHT22;68;48.792;9.164;2023-07-02T06:28:24;17.10;91.10
152;DHT22;68;48.792;9.164;2023-07-02T06:30:52;17.20;89.90
152;DHT22;68;48.792;9.164;2023-07-02T06:33:19;17.20;93.40
152;DHT22;68;48.792;9.164;2023-07-02T06:35:46;17.30;93.80
152;DHT22;68;48.792;9.164;2023-07-02T06:38:13;17.30;91.80
152;DHT22;68;48.792;9.164;2023-07-02T06:40:39;17.30;91.80
152;DHT22;68;48.792;9.164;2023-07-02T06:43:06;17.40;92.20
152;DHT22;68;48.792;9.164;2023-07-02T06:45:33;17.50;93.80
152;DHT22;68;48.792;9.164;2023-07-02T06:48:01;17.70;93.60
152;DHT22;68;48.792;9.164;2023-07-02T06:50:28;17.70;93.60
152;DHT22;68;48.792;9.164;2023-07-02T06:52:54;17.70;93.40
152;DHT22;68;48.792;9.164;2023-07-02T06:55:21;17.60;93.40
152;DHT22;68;48.792;9.164;2023-07-02T06:57:49;17.70;93.40
152;DHT22;68;48.792;9.164;2023-07-02T07:00:16;17.60;93.70
152;DHT22;68;48.792;9.164;2023-07-02T07:02:43;17.70;93.50
152;DHT22;68;48.792;9.164;2023-07-02T07:05:11;17.70;93.50
152;DHT22;68;48.792;9.164;2023-07-02T07:07:38;17.70;92.70
152;DHT22;68;48.792;9.164;2023-07-02T07:10:10;17.50;93.30
152;DHT22;68;48.792;9.164;2023-07-02T07:12:36;17.60;94.20
152;DHT22;68;48.792;9.164;2023-07-02T07:15:07;17.80;93.60
152;DHT22;68;48.792;9.164;2023-07-02T07:17:33;18.00;93.40
152;DHT22;68;48.792;9.164;2023-07-02T07:20:00;18.00;93.90
152;DHT22;68;48.792;9.164;2023-07-02T07:22:34;18.10;93.30
152;DHT22;68;48.792;9.164;2023-07-02T07:25:01;17.90;92.90
152;DHT22;68;48.792;9.164;2023-07-02T07:27:30;18.00;93.40
152;DHT22;68;48.792;9.164;2023-07-02T07:29:57;17.90;93.50
152;DHT22;68;48.792;9.164;2023-07-02T07:32:24;17.80;92.70
152;DHT22;68;48.792;9.164;2023-07-02T07:34:50;17.80;93.50
152;DHT22;68;48.792;9.164;2023-07-02T07:37:17;17.70;92.70
152;DHT22;68;48.792;9.164;2023-07-02T07:39:45;17.80;91.00
152;DHT22;68;48.792;9.164;2023-07-02T07:42:14;18.00;90.40
152;DHT22;68;48.792;9.164;2023-07-02T07:44:42;18.20;90.10
152;DHT22;68;48.792;9.164;2023-07-02T07:47:09;18.40;89.00
152;DHT22;68;48.792;9.164;2023-07-02T07:49:35;18.50;90.40
152;DHT22;68;48.792;9.164;2023-07-02T07:52:02;18.50;88.30
152;DHT22;68;48.792;9.164;2023-07-02T07:54:32;18.50;90.10
152;DHT22;68;48.792;9.164;2023-07-02T07:57:01;18.60;84.90
152;DHT22;68;48.792;9.164;2023-07-02T07:59:28;18.70;83.80
152;DHT22;68;48.792;9.164;2023-07-02T08:01:58;18.80;85.30
152;DHT22;68;48.792;9.164;2023-07-02T08:04:25;18.80;84.00
152;DHT22;68;48.792;9.164;2023-07-02T08:06:51;18.70;83.50
152;DHT22;68;48.792;9.164;2023-07-02T08:09:20;18.70;83.10
152;DHT22;68;48.792;9.164;2023-07-02T08:11:46;18.50;85.90
152;DHT22;68;48.792;9.164;2023-07-02T08:14:16;18.60;82.10
152;DHT22;68;48.792;9.164;2023-07-02T08:16:48;18.70;82.80
152;DHT22;68;48.792;9.164;2023-07-02T08:19:14;19.00;80.50
152;DHT22;68;48.792;9.164;2023-07-02T08:21:41;19.20;77.80
152;DHT22;68;48.792;9.164;2023-07-02T08:24:08;19.30;83.60
152;DHT22;68;48.792;9.164;2023-07-02T08:26:35;19.20;81.00
152;DHT22;68;48.792;9.164;2023-07-02T08:29:02;19.10;81.60
152;DHT22;68;48.792;9.164;2023-07-02T08:31:30;19.20;80.20
152;DHT22;68;48.792;9.164;2023-07-02T08:33:57;19.40;78.70
152;DHT22;68;48.792;9.164;2023-07-02T08:36:24;19.60;78.80
152;DHT22;68;48.792;9.164;2023-07-02T08:38:51;19.80;78.10
152;DHT22;68;48.792;9.164;2023-07-02T08:41:17;20.00;78.30
152;DHT22;68;48.792;9.164;2023-07-02T08:43:44;20.10;80.20
152;DHT22;68;48.792;9.164;2023-07-02T08:46:12;20.30;76.60
152;DHT22;68;48.792;9.164;2023-07-02T08:48:40;20.30;76.10
152;DHT22;68;48.792;9.164;2023-07-02T08:51:07;20.40;73.50
152;DHT22;68;48.792;9.164;2023-07-02T08:53:34;20.40;73.10
152;DHT22;68;48.792;9.164;2023-07-02T08:56:01;20.30;75.40
152;DHT22;68;48.792;9.164;2023-07-02T08:58:29;20.30;72.20
152;DHT22;68;48.792;9.164;2023-07-02T09:01:10;20.50;72.10
152;DHT22;68;48.792;9.164;2023-07-02T09:03:38;20.60;72.10
152;DHT22;68;48.792;9.164;2023-07-02T09:06:07;20.80;73.50
152;DHT22;68;48.792;9.164;2023-07-02T09:08:35;20.90;71.90
152;DHT22;68;48.792;9.164;2023-07-02T09:11:08;21.00;73.50
152;DHT22;68;48.792;9.164;2023-07-02T09:13:46;20.90;69.40
152;DHT22;68;48.792;9.164;2023-07-02T09:16:23;21.00;68.20
152;DHT22;68;48.792;9.164;2023-07-02T09:18:58;21.10;68.00
152;DHT22;68;48.792;9.164;2023-07-02T09:21:27;21.10;69.20
152;DHT22;68;48.792;9.164;2023-07-02T09:23:54;21.10;70.20
152;DHT22;68;48.792;9.164;2023-07-02T09:26:22;21.20;69.90
152;DHT22;68;48.792;9.164;2023-07-02T09:28:49;21.30;69.70
152;DHT22;68;48.792;9.164;2023-07-02T09:31:16;21.40;69.40
152;DHT22;68;48.792;9.164;2023-07-02T09:33:43;21.30;70.40
152;DHT22;68;48.792;9.164;2023-07-02T09:36:11;21.20;70.20
152;DHT22;68;48.792;9.164;2023-07-02T09:38:40;21.20;69.60
152;DHT22;68;48.792;9.164;2023-07-02T09:41:07;21.30;69.50
152;DHT22;68;48.792;9.164;2023-07-02T09:43:34;21.20;71.00
152;DHT22;68;48.792;9.164;2023-07-02T09:46:04;21.30;70.10
152;DHT22;68;48.792;9.164;2023-07-02T09:48:34;21.40;68.60
152;DHT22;68;48.792;9.164;2023-07-02T09:51:02;21.40;68.60
152;DHT22;68;48.792;9.164;2023-07-02T09:53:29;21.20;69.10
152;DHT22;68;48.792;9.164;2023-07-02T09:55:58;21.40;69.10
152;DHT22;68;48.792;9.164;2023-07-02T09:58:25;21.70;68.50
152;DHT22;68;48.792;9.164;2023-07-02T10:00:52;21.70;68.90
152;DHT22;68;48.792;9.164;2023-07-02T10:03:28;21.80;68.40
152;DHT22;68;48.792;9.164;2023-07-02T10:06:03;21.90;69.50
152;DHT22;68;48.792;9.164;2023-07-02T10:08:30;22.10;68.40
152;DHT22;68;48.792;9.164;2023-07-02T10:11:08;22.10;69.00
152;DHT22;68;48.792;9.164;2023-07-02T10:13:35;22.40;66.00
152;DHT22;68;48.792;9.164;2023-07-02T10:16:06;22.40;67.00
152;DHT22;68;48.792;9.164;2023-07-02T10:18:33;22.40;69.60
152;DHT22;68;48.792;9.164;2023-07-02T10:21:00;22.20;66.70
152;DHT22;68;48.792;9.164;2023-07-02T10:23:34;22.30;67.80
152;DHT22;68;48.792;9.164;2023-07-02T10:26:14;22.30;68.00
152;DHT22;68;48.792;9.164;2023-07-02T10:28:42;21.90;67.60
152;DHT22;68;48.792;9.164;2023-07-02T10:31:19;21.80;69.60
152;DHT22;68;48.792;9.164;2023-07-02T10:33:46;21.70;69.60
152;DHT22;68;48.792;9.164;2023-07-02T10:36:18;21.60;71.10
152;DHT22;68;48.792;9.164;2023-07-02T10:38:46;21.70;68.90
152;DHT22;68;48.792;9.164;2023-07-02T10:41:23;21.90;68.40
152;DHT22;68;48.792;9.164;2023-07-02T10:43:51;21.60;71.20
152;DHT22;68;48.792;9.164;2023-07-02T10:46:20;21.60;71.10
152;DHT22;68;48.792;9.164;2023-07-02T10:48:52;21.60;71.10
152;DHT22;68;48.792;9.164;2023-07-02T10:51:18;21.70;69.60
152;DHT22;68;48.792;9.164;2023-07-02T10:53:46;22.00;70.10
152;DHT22;68;48.792;9.164;2023-07-02T10:56:23;22.30;67.30
152;DHT22;68;48.792;9.164;2023-07-02T10:58:50;22.50;68.90
152;DHT22;68;48.792;9.164;2023-07-02T11:01:22;22.70;67.70
152;DHT22;68;48.792;9.164;2023-07-02T11:03:56;23.10;64.40
152;DHT22;68;48.792;9.164;2023-07-02T11:06:22;23.30;62.70
152;DHT22;68;48.792;9.164;2023-07-02T11:08:49;23.50;61.60
152;DHT22;68;48.792;9.164;2023-07-02T11:11:16;23.70;62.20
152;DHT22;68;48.792;9.164;2023-07-02T11:13:48;23.90;61.50
152;DHT22;68;48.792;9.164;2023-07-02T11:16:25;24.00;60.80
152;DHT22;68;48.792;9.164;2023-07-02T11:18:53;24.10;61.50
152;DHT22;68;48.792;9.164;2023-07-02T11:21:20;24.10;60.00
152;DHT22;68;48.792;9.164;2023-07-02T11:23:47;23.60;61.90
152;DHT22;68;48.792;9.164;2023-07-02T11:26:14;23.80;59.10
152;DHT22;68;48.792;9.164;2023-07-02T11:28:51;24.00;60.40
152;DHT22;68;48.792;9.164;2023-07-02T11:31:26;24.50;60.30
152;DHT22;68;48.792;9.164;2023-07-02T11:33:53;24.30;60.00
152;DHT22;68;48.792;9.164;2023-07-02T11:36:21;24.20;61.60
152;DHT22;68;48.792;9.164;2023-07-02T11:38:49;23.70;62.00
152;DHT22;68;48.792;9.164;2023-07-02T11:41:15;23.80;59.60
152;DHT22;68;48.792;9.164;2023-07-02T11:43:42;23.70;59.30
152;DHT22;68;48.792;9.164;2023-07-02T11:46:10;23.80;59.70
152;DHT22;68;48.792;9.164;2023-07-02T11:48:37;24.10;58.40
152;DHT22;68;48.792;9.164;2023-07-02T11:51:04;24.60;58.40
152;DHT22;68;48.792;9.164;2023-07-02T11:53:31;25.50;56.80
152;DHT22;68;48.792;9.164;2023-07-02T11:55:57;26.30;54.40
152;DHT22;68;48.792;9.164;2023-07-02T11:58:24;26.70;53.60
152;DHT22;68;48.792;9.164;2023-07-02T12:00:51;27.00;54.90
152;DHT22;68;48.792;9.164;2023-07-02T12:03:19;27.00;52.30
152;DHT22;68;48.792;9.164;2023-07-02T12:05:46;27.60;51.30
152;DHT22;68;48.792;9.164;2023-07-02T12:08:13;27.90;50.20
152;DHT22;68;48.792;9.164;2023-07-02T12:10:40;27.30;52.20
152;DHT22;68;48.792;9.164;2023-07-02T12:13:07;26.90;51.00
152;DHT22;68;48.792;9.164;2023-07-02T12:15:34;26.40;54.10
152;DHT22;68;48.792;9.164;2023-07-02T12:18:00;25.90;52.20
152;DHT22;68;48.792;9.164;2023-07-02T12:20:29;25.60;52.90
152;DHT22;68;48.792;9.164;2023-07-02T12:22:56;25.50;52.50
152;DHT22;68;48.792;9.164;2023-07-02T12:25:23;25.40;53.40
152;DHT22;68;48.792;9.164;2023-07-02T12:27:50;25.30;55.10
152;DHT22;68;48.792;9.164;2023-07-02T12:30:16;25.40;52.80
152;DHT22;68;48.792;9.164;2023-07-02T12:32:44;25.30;56.70
152;DHT22;68;48.792;9.164;2023-07-02T12:35:11;25.20;54.40
152;DHT22;68;48.792;9.164;2023-07-02T12:37:44;25.30;55.30
152;DHT22;68;48.792;9.164;2023-07-02T12:40:11;25.40;54.30
152;DHT22;68;48.792;9.164;2023-07-02T12:42:38;25.40;54.90
152;DHT22;68;48.792;9.164;2023-07-02T12:45:06;25.50;54.10
152;DHT22;68;48.792;9.164;2023-07-02T12:47:33;25.60;54.30
152;DHT22;68;48.792;9.164;2023-07-02T12:50:01;25.50;54.90
152;DHT22;68;48.792;9.164;2023-07-02T12:52:28;25.30;53.80
152;DHT22;68;48.792;9.164;2023-07-02T12:54:57;25.40;53.60
152;DHT22;68;48.792;9.164;2023-07-02T12:57:23;25.60;53.50
152;DHT22;68;48.792;9.164;2023-07-02T12:59:51;25.70;52.50
152;DHT22;68;48.792;9.164;2023-07-02T13:02:18;25.70;52.00
152;DHT22;68;48.792;9.164;2023-07-02T13:04:45;25.60;52.90
152;DHT22;68;48.792;9.164;2023-07-02T13:07:12;25.50;52.10
152;DHT22;68;48.792;9.164;2023-07-02T13:09:38;25.30;52.80
152;DHT22;68;48.792;9.164;2023-07-02T13:12:07;25.30;52.50
152;DHT22;68;48.792;9.164;2023-07-02T13:14:34;25.30;51.90
152;DHT22;68;48.792;9.164;2023-07-02T13:17:01;25.40;53.00
152;DHT22;68;48.792;9.164;2023-07-02T13:19:30;25.10;53.10
152;DHT22;68;48.792;9.164;2023-07-02T13:21:57;25.00;53.00
152;DHT22;68;48.792;9.164;2023-07-02T13:24:23;25.10;53.20
152;DHT22;68;48.792;9.164;2023-07-02T13:26:50;25.30;52.80
152;DHT22;68;48.792;9.164;2023-07-02T13:29:19;25.30;52.30
152;DHT22;68;48.792;9.164;2023-07-02T13:31:45;25.40;54.80
152;DHT22;68;48.792;9.164;2023-07-02T13:34:12;25.50;51.80
152;DHT22;68;48.792;9.164;2023-07-02T13:36:39;25.40;52.90
152;DHT22;68;48.792;9.164;2023-07-02T13:39:06;25.30;53.00
152;DHT22;68;48.792;9.164;2023-07-02T13:41:32;25.40;52.50
152;DHT22;68;48.792;9.164;2023-07-02T13:43:59;25.40;53.20
152;DHT22;68;48.792;9.164;2023-07-02T13:46:27;25.20;53.60
152;DHT22;68;48.792;9.164;2023-07-02T13:48:54;25.30;53.50
152;DHT22;68;48.792;9.164;2023-07-02T13:51:21;25.00;53.20
152;DHT22;68;48.792;9.164;2023-07-02T13:53:47;25.10;53.10
152;DHT22;68;48.792;9.164;2023-07-02T13:56:14;25.30;54.40
152;DHT22;68;48.792;9.164;2023-07-02T13:59:01;25.30;52.90
152;DHT22;68;48.792;9.164;2023-07-02T14:01:28;25.20;52.40
152;DHT22;68;48.792;9.164;2023-07-02T14:03:55;25.50;52.10
152;DHT22;68;48.792;9.164;2023-07-02T14:06:22;25.60;52.40
152;DHT22;68;48.792;9.164;2023-07-02T14:08:48;25.70;52.00
152;DHT22;68;48.792;9.164;2023-07-02T14:11:16;25.70;50.90
152;DHT22;68;48.792;9.164;2023-07-02T14:13:43;25.70;51.40
152;DHT22;68;48.792;9.164;2023-07-02T14:16:11;25.50;52.20
152;DHT22;68;48.792;9.164;2023-07-02T14:18:37;25.30;52.80
152;DHT22;68;48.792;9.164;2023-07-02T14:21:04;25.30;50.70
152;DHT22;68;48.792;9.164;2023-07-02T14:23:31;25.30;54.30
152;DHT22;68;48.792;9.164;2023-07-02T14:25:59;25.30;53.30
152;DHT22;68;48.792;9.164;2023-07-02T14:28:25;25.40;52.40
152;DHT22;68;48.792;9.164;2023-07-02T14:30:58;25.30;54.60
152;DHT22;68;48.792;9.164;2023-07-02T14:33:28;25.40;52.30
152;DHT22;68;48.792;9.164;2023-07-02T14:35:55;25.20;52.70
152;DHT22;68;48.792;9.164;2023-07-02T14:38:23;25.30;53.60
152;DHT22;68;48.792;9.164;2023-07-02T14:40:50;25.40;51.90
152;DHT22;68;48.792;9.164;2023-07-02T14:43:17;25.60;52.20
152;DHT22;68;48.792;9.164;2023-07-02T14:45:46;25.60;51.90
152;DHT22;68;48.792;9.164;2023-07-02T14:48:14;25.60;51.90
152;DHT22;68;48.792;9.164;2023-07-02T14:50:48;25.70;52.70
152;DHT22;68;48.792;9.164;2023-07-02T14:53:15;25.60;52.80
152;DHT22;68;48.792;9.164;2023-07-02T14:55:42;25.50;51.20
152;DHT22;68;48.792;9.164;2023-07-02T14:58:10;25.40;53.60
152;DHT22;68;48.792;9.164;2023-07-02T15:00:43;25.30;55.50
152;DHT22;68;48.792;9.164;2023-07-02T15:03:09;25.20;54.10
152;DHT22;68;48.792;9.164;2023-07-02T15:05:36;25.30;53.00
152;DHT22;68;48.792;9.164;2023-07-02T15:08:05;25.10;55.20
152;DHT22;68;48.792;9.164;2023-07-02T15:10:31;25.30;52.50
152;DHT22;68;48.792;9.164;2023-07-02T15:12:58;25.50;53.30
152;DHT22;68;48.792;9.164;2023-07-02T15:15:25;25.50;53.50
152;DHT22;68;48.792;9.164;2023-07-02T15:17:52;25.30;53.30
152;DHT22;68;48.792;9.164;2023-07-02T15:20:18;25.10;52.90
152;DHT22;68;48.792;9.164;2023-07-02T15:22:45;25.00;53.10
152;DHT22;68;48.792;9.164;2023-07-02T15:25:13;25.10;53.60
152;DHT22;68;48.792;9.164;2023-07-02T15:27:40;25.20;52.90
152;DHT22;68;48.792;9.164;2023-07-02T15:30:07;25.00;53.30
152;DHT22;68;48.792;9.164;2023-07-02T15:32:34;25.00;53.60
152;DHT22;68;48.792;9.164;2023-07-02T15:35:01;25.10;53.20
152;DHT22;68;48.792;9.164;2023-07-02T15:37:28;25.20;54.30
152;DHT22;68;48.792;9.164;2023-07-02T15:39:54;25.00;55.40
152;DHT22;68;48.792;9.164;2023-07-02T15:42:23;24.70;54.70
152;DHT22;68;48.792;9.164;2023-07-02T15:44:55;24.40;55.90
152;DHT22;68;48.792;9.164;2023-07-02T15:47:22;24.50;54.70
152;DHT22;68;48.792;9.164;2023-07-02T15:49:49;24.60;55.20
152;DHT22;68;48.792;9.164;2023-07-02T15:52:16;24.70;55.10
152;DHT22;68;48.792;9.164;2023-07-02T15:54:43;24.80;55.50
152;DHT22;68;48.792;9.164;2023-07-02T15:57:10;24.80;55.70
152;DHT22;68;48.792;9.164;2023-07-02T15:59:38;24.80;54.40
152;DHT22;68;48.792;9.164;2023-07-02T16:02:06;24.90;54.10
152;DHT22;68;48.792;9.164;2023-07-02T16:04:34;24.90;53.40
152;DHT22;68;48.792;9.164;2023-07-02T16:07:00;25.00;53.40
152;DHT22;68;48.792;9.164;2023-07-02T16:09:27;24.90;53.70
152;DHT22;68;48.792;9.164;2023-07-02T16:11:54;24.70;55.00
152;DHT22;68;48.792;9.164;2023-07-02T16:14:21;24.60;54.80
152;DHT22;68;48.792;9.164;2023-07-02T16:16:49;24.40;56.10
152;DHT22;68;48.792;9.164;2023-07-02T16:19:20;24.40;56.80
152;DHT22;68;48.792;9.164;2023-07-02T16:21:48;24.50;55.20
152;DHT22;68;48.792;9.164;2023-07-02T16:24:18;24.50;54.40
152;DHT22;68;48.792;9.164;2023-07-02T16:26:46;24.30;54.40
152;DHT22;68;48.792;9.164;2023-07-02T16:29:13;24.30;55.30
152;DHT22;68;48.792;9.164;2023-07-02T16:31:43;24.20;54.00
152;DHT22;68;48.792;9.164;2023-07-02T16:34:11;24.30;55.90
152;DHT22;68;48.792;9.164;2023-07-02T16:36:40;24.20;57.80
152;DHT22;68;48.792;9.164;2023-07-02T16:39:07;24.00;58.70
152;DHT22;68;48.792;9.164;2023-07-02T16:41:34;24.00;57.70
152;DHT22;68;48.792;9.164;2023-07-02T16:44:03;24.00;57.90
152;DHT22;68;48.792;9.164;2023-07-02T16:46:32;23.90;56.40
152;DHT22;68;48.792;9.164;2023-07-02T16:48:59;23.90;56.00
152;DHT22;68;48.792;9.164;2023-07-02T16:51:27;24.00;55.40
152;DHT22;68;48.792;9.164;2023-07-02T16:53:54;24.10;55.20
152;DHT22;68;48.792;9.164;2023-07-02T16:56:21;24.10;56.20
152;DHT22;68;48.792;9.164;2023-07-02T16:58:49;24.00;55.60
152;DHT22;68;48.792;9.164;2023-07-02T17:01:15;24.00;55.70
152;DHT22;68;48.792;9.164;2023-07-02T17:03:43;24.00;55.40
152;DHT22;68;48.792;9.164;2023-07-02T17:06:12;23.80;56.70
152;DHT22;68;48.792;9.164;2023-07-02T17:08:41;23.80;55.20